sensor_id;sensor_type;location;lat;lon;timestamp;temperature;humidity
11423;DHT22;5768;51.476;7.210;2023-03-04T00:04:23;6.70;13.10
11423;DHT22;5768;51.476;7.210;2023-03-04T00:09:26;6.70;13.20
11423;DHT22;5768;51.476;7.210;2023-03-04T00:14:28;6.70;13.10
11423;DHT22;5768;51.476;7.210;2023-03-04T00:19:31;6.70;13.10
11423;DHT22;5768;51.476;7.210;2023-03-04T00:24:36;6.90;13.10
11423;DHT22;5768;51.476;7.210;2023-03-04T00:29:38;6.70;13.10
11423;DHT22;5768;51.476;7.210;2023-03-04T00:34:40;6.80;13.10
11423;DHT22;5768;51.476;7.210;2023-03-04T00:39:44;6.90;13.10
11423;DHT22;5768;51.476;7.210;2023-03-04T00:44:46;6.70;13.20
11423;DHT22;5768;51.476;7.210;2023-03-04T00:49:49;6.60;13.20
11423;DHT22;5768;51.476;7.210;2023-03-04T00:54:52;6.80;13.20
11423;DHT22;5768;51.476;7.210;2023-03-04T00:59:54;6.70;13.20
11423;DHT22;5768;51.476;7.210;2023-03-04T01:04:56;6.70;13.20
11423;DHT22;5768;51.476;7.210;2023-03-04T01:10:00;7.00;13.10
11423;DHT22;5768;51.476;7.210;2023-03-04T01:15:03;7.10;13.10
11423;DHT22;5768;51.476;7.210;2023-03-04T01:20:07;7.00;13.10
11423;DHT22;5768;51.476;7.210;2023-03-04T01:25:11;6.80;13.20
11423;DHT22;5768;51.476;7.210;2023-03-04T01:30:14;7.00;13.10
11423;DHT22;5768;51.476;7.210;2023-03-04T01:35:16;7.00;13.10
11423;DHT22;5768;51.476;7.210;2023-03-04T01:40:19;6.90;13.20
11423;DHT22;5768;51.476;7.210;2023-03-04T01:45:22;6.80;13.20
11423;DHT22;5768;51.476;7.210;2023-03-04T01:50:29;6.80;13.20
11423;DHT22;5768;51.476;7.210;2023-03-04T01:55:34;7.00;13.20
11423;DHT22;5768;51.476;7.210;2023-03-04T02:00:38;7.00;13.20
11423;DHT22;5768;51.476;7.210;2023-03-04T02:05:43;7.10;13.20
11423;DHT22;5768;51.476;7.210;2023-03-04T02:10:49;7.00;13.20
11423;DHT22;5768;51.476;7.210;2023-03-04T02:15:52;7.00;13.20
11423;DHT22;5768;51.476;7.210;2023-03-04T02:21:02;6.60;13.40
11423;DHT22;5768;51.476;7.210;2023-03-04T02:26:14;6.60;13.50
11423;DHT22;5768;51.476;7.210;2023-03-04T02:31:23;6.80;13.40
11423;DHT22;5768;51.476;7.210;2023-03-04T02:36:28;6.80;13.40
11423;DHT22;5768;51.476;7.210;2023-03-04T02:41:32;6.60;13.50
11423;DHT22;5768;51.476;7.210;2023-03-04T02:46:35;6.60;13.50
11423;DHT22;5768;51.476;7.210;2023-03-04T02:51:38;6.60;13.50
11423;DHT22;5768;51.476;7.210;2023-03-04T02:56:44;6.70;13.50
11423;DHT22;5768;51.476;7.210;2023-03-04T03:01:47;6.60;13.50
11423;DHT22;5768;51.476;7.210;2023-03-04T03:06:50;6.60;13.50
11423;DHT22;5768;51.476;7.210;2023-03-04T03:11:54;6.60;13.60
11423;DHT22;5768;51.476;7.210;2023-03-04T03:16:56;6.60;13.60
11423;DHT22;5768;51.476;7.210;2023-03-04T03:21:58;6.60;13.60
11423;DHT22;5768;51.476;7.210;2023-03-04T03:27:01;6.50;13.60
11423;DHT22;5768;51.476;7.210;2023-03-04T03:32:03;6.40;13.60
11423;DHT22;5768;51.476;7.210;2023-03-04T03:37:06;6.30;13.70
11423;DHT22;5768;51.476;7.210;2023-03-04T03:42:09;6.30;13.80
11423;DHT22;5768;51.476;7.210;2023-03-04T03:47:11;6.30;13.70
11423;DHT22;5768;51.476;7.210;2023-03-04T03:52:13;6.40;13.70
11423;DHT22;5768;51.476;7.210;2023-03-04T03:57:17;6.50;13.60
11423;DHT22;5768;51.476;7.210;2023-03-04T04:02:19;6.50;13.60
11423;DHT22;5768;51.476;7.210;2023-03-04T04:07:21;6.50;13.60
11423;DHT22;5768;51.476;7.210;2023-03-04T04:12:25;6.40;13.70
11423;DHT22;5768;51.476;7.210;2023-03-04T04:17:27;6.40;13.80
11423;DHT22;5768;51.476;7.210;2023-03-04T04:22:29;6.40;13.70
11423;DHT22;5768;51.476;7.210;2023-03-04T04:27:33;6.40;13.70
11423;DHT22;5768;51.476;7.210;2023-03-04T04:32:35;6.50;13.70
11423;DHT22;5768;51.476;7.210;2023-03-04T04:37:37;6.60;13.70
11423;DHT22;5768;51.476;7.210;2023-03-04T04:42:40;6.70;13.70
11423;DHT22;5768;51.476;7.210;2023-03-04T04:47:42;6.50;13.80
11423;DHT22;5768;51.476;7.210;2023-03-04T04:52:44;6.50;13.90
11423;DHT22;5768;51.476;7.210;2023-03-04T04:57:48;6.50;13.90
11423;DHT22;5768;51.476;7.210;2023-03-04T05:02:50;6.40;13.90
11423;DHT22;5768;51.476;7.210;2023-03-04T05:07:52;6.50;13.90
11423;DHT22;5768;51.476;7.210;2023-03-04T05:12:55;6.40;13.90
11423;DHT22;5768;51.476;7.210;2023-03-04T05:17:57;6.30;14.10
11423;DHT22;5768;51.476;7.210;2023-03-04T05:22:59;6.40;14.00
11423;DHT22;5768;51.476;7.210;2023-03-04T05:28:03;6.40;14.00
11423;DHT22;5768;51.476;7.210;2023-03-04T05:33:07;6.30;14.10
11423;DHT22;5768;51.476;7.210;2023-03-04T05:38:12;6.30;14.10
11423;DHT22;5768;51.476;7.210;2023-03-04T05:43:16;6.40;14.10
11423;DHT22;5768;51.476;7.210;2023-03-04T05:48:18;6.40;14.10
11423;DHT22;5768;51.476;7.210;2023-03-04T05:53:20;6.20;14.10
11423;DHT22;5768;51.476;7.210;2023-03-04T05:58:24;6.30;14.20
11423;DHT22;5768;51.476;7.210;2023-03-04T06:03:26;6.40;14.20
11423;DHT22;5768;51.476;7.210;2023-03-04T06:08:28;6.40;14.10
11423;DHT22;5768;51.476;7.210;2023-03-04T06:13:32;6.50;14.10
11423;DHT22;5768;51.476;7.210;2023-03-04T06:18:35;6.60;14.30
11423;DHT22;5768;51.476;7.210;2023-03-04T06:23:37;6.50;14.30
11423;DHT22;5768;51.476;7.210;2023-03-04T06:28:41;6.50;14.20
11423;DHT22;5768;51.476;7.210;2023-03-04T06:33:43;6.50;14.20
11423;DHT22;5768;51.476;7.210;2023-03-04T06:38:45;6.50;14.20
11423;DHT22;5768;51.476;7.210;2023-03-04T06:43:49;6.40;14.20
11423;DHT22;5768;51.476;7.210;2023-03-04T06:48:54;6.40;14.30
11423;DHT22;5768;51.476;7.210;2023-03-04T06:53:57;6.40;14.20
11423;DHT22;5768;51.476;7.210;2023-03-04T06:59:01;6.40;14.30
11423;DHT22;5768;51.476;7.210;2023-03-04T07:04:03;6.50;14.40
11423;DHT22;5768;51.476;7.210;2023-03-04T07:09:05;6.50;14.30
11423;DHT22;5768;51.476;7.210;2023-03-04T07:14:09;6.40;14.40
11423;DHT22;5768;51.476;7.210;2023-03-04T07:19:11;6.50;14.40
11423;DHT22;5768;51.476;7.210;2023-03-04T07:24:13;6.70;14.30
11423;DHT22;5768;51.476;7.210;2023-03-04T07:29:17;6.70;14.30
11423;DHT22;5768;51.476;7.210;2023-03-04T07:34:19;6.70;14.30
11423;DHT22;5768;51.476;7.210;2023-03-04T07:39:21;6.70;14.30
11423;DHT22;5768;51.476;7.210;2023-03-04T07:44:25;6.80;14.50
11423;DHT22;5768;51.476;7.210;2023-03-04T07:49:27;6.70;14.60
11423;DHT22;5768;51.476;7.210;2023-03-04T07:54:29;6.40;14.80
11423;DHT22;5768;51.476;7.210;2023-03-04T07:59:32;6.50;15.00
11423;DHT22;5768;51.476;7.210;2023-03-04T08:04:37;6.80;14.90
11423;DHT22;5768;51.476;7.210;2023-03-04T08:09:40;7.20;14.70
11423;DHT22;5768;51.476;7.210;2023-03-04T08:14:44;7.70;14.20
11423;DHT22;5768;51.476;7.210;2023-03-04T08:19:46;7.60;14.20
11423;DHT22;5768;51.476;7.210;2023-03-04T08:24:48;7.60;14.20
11423;DHT22;5768;51.476;7.210;2023-03-04T08:29:52;7.70;14.20
11423;DHT22;5768;51.476;7.210;2023-03-04T08:34:54;7.80;14.20
11423;DHT22;5768;51.476;7.210;2023-03-04T08:39:56;7.90;14.10
11423;DHT22;5768;51.476;7.210;2023-03-04T08:44:59;7.80;14.10
11423;DHT22;5768;51.476;7.210;2023-03-04T08:50:02;8.00;14.10
11423;DHT22;5768;51.476;7.210;2023-03-04T08:55:06;8.30;14.10
11423;DHT22;5768;51.476;7.210;2023-03-04T09:00:11;8.10;14.10
11423;DHT22;5768;51.476;7.210;2023-03-04T09:05:14;8.20;14.20
11423;DHT22;5768;51.476;7.210;2023-03-04T09:10:16;8.10;14.10
11423;DHT22;5768;51.476;7.210;2023-03-04T09:15:20;8.10;14.20
11423;DHT22;5768;51.476;7.210;2023-03-04T09:20:22;7.70;14.60
11423;DHT22;5768;51.476;7.210;2023-03-04T09:25:24;7.20;15.50
11423;DHT22;5768;51.476;7.210;2023-03-04T09:30:27;7.20;16.30
11423;DHT22;5768;51.476;7.210;2023-03-04T09:35:30;7.70;16.20
11423;DHT22;5768;51.476;7.210;2023-03-04T09:40:38;7.60;16.20
11423;DHT22;5768;51.476;7.210;2023-03-04T09:45:47;7.60;16.30
11423;DHT22;5768;51.476;7.210;2023-03-04T09:51:05;7.20;16.60
11423;DHT22;5768;51.476;7.210;2023-03-04T09:56:15;7.40;16.80
11423;DHT22;5768;51.476;7.210;2023-03-04T10:01:23;7.80;16.50
11423;DHT22;5768;51.476;7.210;2023-03-04T10:06:30;7.90;16.30
11423;DHT22;5768;51.476;7.210;2023-03-04T10:11:37;7.80;16.60
11423;DHT22;5768;51.476;7.210;2023-03-04T10:16:48;8.00;16.70
11423;DHT22;5768;51.476;7.210;2023-03-04T10:21:53;7.90;16.80
11423;DHT22;5768;51.476;7.210;2023-03-04T10:27:01;7.60;17.40
11423;DHT22;5768;51.476;7.210;2023-03-04T10:32:11;7.70;17.40
11423;DHT22;5768;51.476;7.210;2023-03-04T10:37:17;7.90;17.20
11423;DHT22;5768;51.476;7.210;2023-03-04T10:42:25;7.90;17.20
11423;DHT22;5768;51.476;7.210;2023-03-04T10:47:37;7.90;17.00
11423;DHT22;5768;51.476;7.210;2023-03-04T10:52:45;7.90;16.80
11423;DHT22;5768;51.476;7.210;2023-03-04T10:57:52;7.70;17.00
11423;DHT22;5768;51.476;7.210;2023-03-04T11:03:22;7.70;17.30
11423;DHT22;5768;51.476;7.210;2023-03-04T11:08:33;7.60;17.70
11423;DHT22;5768;51.476;7.210;2023-03-04T11:13:35;7.50;18.30
11423;DHT22;5768;51.476;7.210;2023-03-04T11:18:41;7.70;18.40
11423;DHT22;5768;51.476;7.210;2023-03-04T11:23:49;7.90;18.60
11423;DHT22;5768;51.476;7.210;2023-03-04T11:28:58;8.60;17.80
11423;DHT22;5768;51.476;7.210;2023-03-04T11:34:17;8.50;17.30
11423;DHT22;5768;51.476;7.210;2023-03-04T11:39:30;8.00;18.00
11423;DHT22;5768;51.476;7.210;2023-03-04T11:44:37;8.10;17.90
11423;DHT22;5768;51.476;7.210;2023-03-04T11:50:03;8.40;18.00
11423;DHT22;5768;51.476;7.210;2023-03-04T11:55:30;9.60;16.90
11423;DHT22;5768;51.476;7.210;2023-03-04T12:00:42;9.60;16.20
11423;DHT22;5768;51.476;7.210;2023-03-04T12:05:59;9.30;16.50
11423;DHT22;5768;51.476;7.210;2023-03-04T12:11:11;9.00;16.80
11423;DHT22;5768;51.476;7.210;2023-03-04T12:16:34;8.40;17.30
11423;DHT22;5768;51.476;7.210;2023-03-04T12:22:10;8.20;17.50
11423;DHT22;5768;51.476;7.210;2023-03-04T12:27:28;8.40;17.70
11423;DHT22;5768;51.476;7.210;2023-03-04T12:32:45;8.40;17.60
11423;DHT22;5768;51.476;7.210;2023-03-04T12:38:06;8.10;17.90
11423;DHT22;5768;51.476;7.210;2023-03-04T12:43:36;8.50;17.80
11423;DHT22;5768;51.476;7.210;2023-03-04T12:48:53;8.30;17.50
11423;DHT22;5768;51.476;7.210;2023-03-04T12:54:22;8.20;17.70
11423;DHT22;5768;51.476;7.210;2023-03-04T12:59:35;8.30;17.70
11423;DHT22;5768;51.476;7.210;2023-03-04T13:04:49;8.50;17.50
11423;DHT22;5768;51.476;7.210;2023-03-04T13:10:06;8.40;17.70
11423;DHT22;5768;51.476;7.210;2023-03-04T13:15:27;8.20;17.90
11423;DHT22;5768;51.476;7.210;2023-03-04T13:20:34;8.20;18.00
11423;DHT22;5768;51.476;7.210;2023-03-04T13:25:40;8.50;18.00
11423;DHT22;5768;51.476;7.210;2023-03-04T13:31:09;8.40;18.10
11423;DHT22;5768;51.476;7.210;2023-03-04T13:36:53;8.20;18.80
11423;DHT22;5768;51.476;7.210;2023-03-04T13:41:58;8.20;19.50
11423;DHT22;5768;51.476;7.210;2023-03-04T13:47:08;8.40;19.50
11423;DHT22;5768;51.476;7.210;2023-03-04T13:52:38;8.40;19.50
11423;DHT22;5768;51.476;7.210;2023-03-04T13:57:49;8.30;19.50
11423;DHT22;5768;51.476;7.210;2023-03-04T14:02:52;8.80;19.40
11423;DHT22;5768;51.476;7.210;2023-03-04T14:07:54;9.20;18.30
11423;DHT22;5768;51.476;7.210;2023-03-04T14:12:58;9.10;17.80
11423;DHT22;5768;51.476;7.210;2023-03-04T14:18:03;8.70;18.10
11423;DHT22;5768;51.476;7.210;2023-03-04T14:23:23;8.90;18.10
11423;DHT22;5768;51.476;7.210;2023-03-04T14:28:28;8.70;17.70
11423;DHT22;5768;51.476;7.210;2023-03-04T14:33:30;8.90;17.40
11423;DHT22;5768;51.476;7.210;2023-03-04T14:38:34;8.80;17.20
11423;DHT22;5768;51.476;7.210;2023-03-04T14:43:48;9.10;16.80
11423;DHT22;5768;51.476;7.210;2023-03-04T14:48:55;8.90;17.10
11423;DHT22;5768;51.476;7.210;2023-03-04T14:53:58;8.80;16.90
11423;DHT22;5768;51.476;7.210;2023-03-04T14:59:01;8.60;17.20
11423;DHT22;5768;51.476;7.210;2023-03-04T15:04:05;8.60;17.10
11423;DHT22;5768;51.476;7.210;2023-03-04T15:09:18;8.60;17.10
11423;DHT22;5768;51.476;7.210;2023-03-04T15:14:44;8.90;16.80
11423;DHT22;5768;51.476;7.210;2023-03-04T15:20:00;8.80;16.60
11423;DHT22;5768;51.476;7.210;2023-03-04T15:25:13;8.70;16.70
11423;DHT22;5768;51.476;7.210;2023-03-04T15:30:21;8.60;16.20
11423;DHT22;5768;51.476;7.210;2023-03-04T15:35:28;8.50;16.00
11423;DHT22;5768;51.476;7.210;2023-03-04T15:40:34;8.50;15.80
11423;DHT22;5768;51.476;7.210;2023-03-04T15:45:40;8.60;15.30
11423;DHT22;5768;51.476;7.210;2023-03-04T15:50:44;9.00;15.00
11423;DHT22;5768;51.476;7.210;2023-03-04T15:55:49;9.00;14.80
11423;DHT22;5768;51.476;7.210;2023-03-04T16:00:53;8.80;14.70
11423;DHT22;5768;51.476;7.210;2023-03-04T16:05:55;8.60;14.80
11423;DHT22;5768;51.476;7.210;2023-03-04T16:10:58;8.50;14.70
11423;DHT22;5768;51.476;7.210;2023-03-04T16:16:02;8.50;14.30
11423;DHT22;5768;51.476;7.210;2023-03-04T16:21:05;8.60;13.90
11423;DHT22;5768;51.476;7.210;2023-03-04T16:26:18;8.90;13.30
11423;DHT22;5768;51.476;7.210;2023-03-04T16:31:23;8.60;13.20
11423;DHT22;5768;51.476;7.210;2023-03-04T16:36:26;8.40;13.30
11423;DHT22;5768;51.476;7.210;2023-03-04T16:41:29;8.30;13.30
11423;DHT22;5768;51.476;7.210;2023-03-04T16:46:33;8.10;13.10
11423;DHT22;5768;51.476;7.210;2023-03-04T16:51:39;8.20;13.20
11423;DHT22;5768;51.476;7.210;2023-03-04T16:56:44;8.50;13.20
11423;DHT22;5768;51.476;7.210;2023-03-04T17:01:48;8.40;13.10
11423;DHT22;5768;51.476;7.210;2023-03-04T17:06:50;8.10;13.30
11423;DHT22;5768;51.476;7.210;2023-03-04T17:11:52;8.20;13.30
11423;DHT22;5768;51.476;7.210;2023-03-04T17:16:58;7.90;13.40
11423;DHT22;5768;51.476;7.210;2023-03-04T17:22:01;8.00;13.40
11423;DHT22;5768;51.476;7.210;2023-03-04T17:27:03;7.90;13.40
11423;DHT22;5768;51.476;7.210;2023-03-04T17:32:07;8.10;13.50
11423;DHT22;5768;51.476;7.210;2023-03-04T17:37:09;8.10;13.50
11423;DHT22;5768;51.476;7.210;2023-03-04T17:42:11;8.10;13.50
11423;DHT22;5768;51.476;7.210;2023-03-04T17:47:14;8.10;13.60
11423;DHT22;5768;51.476;7.210;2023-03-04T17:52:17;7.90;13.60
11423;DHT22;5768;51.476;7.210;2023-03-04T17:57:23;7.80;13.60
11423;DHT22;5768;51.476;7.210;2023-03-04T18:02:26;7.80;13.60
11423;DHT22;5768;51.476;7.210;2023-03-04T18:07:29;7.80;13.70
11423;DHT22;5768;51.476;7.210;2023-03-04T18:12:31;7.70;13.80
11423;DHT22;5768;51.476;7.210;2023-03-04T18:17:35;7.60;14.00
11423;DHT22;5768;51.476;7.210;2023-03-04T18:22:37;7.70;13.80
11423;DHT22;5768;51.476;7.210;2023-03-04T18:27:41;7.70;13.60
11423;DHT22;5768;51.476;7.210;2023-03-04T18:32:46;7.80;13.60
11423;DHT22;5768;51.476;7.210;2023-03-04T18:37:48;7.70;13.60
11423;DHT22;5768;51.476;7.210;2023-03-04T18:42:50;7.70;13.60
11423;DHT22;5768;51.476;7.210;2023-03-04T18:47:54;7.70;13.60
11423;DHT22;5768;51.476;7.210;2023-03-04T18:52:57;7.70;13.60
11423;DHT22;5768;51.476;7.210;2023-03-04T18:57:59;7.60;13.70
11423;DHT22;5768;51.476;7.210;2023-03-04T19:03:06;7.60;13.60
11423;DHT22;5768;51.476;7.210;2023-03-04T19:08:10;7.50;13.60
11423;DHT22;5768;51.476;7.210;2023-03-04T19:13:12;7.50;13.60
11423;DHT22;5768;51.476;7.210;2023-03-04T19:18:19;7.30;13.50
11423;DHT22;5768;51.476;7.210;2023-03-04T19:23:21;7.50;13.60
11423;DHT22;5768;51.476;7.210;2023-03-04T19:28:24;7.50;13.50
11423;DHT22;5768;51.476;7.210;2023-03-04T19:33:27;7.60;13.30
11423;DHT22;5768;51.476;7.210;2023-03-04T19:38:30;7.40;13.00
11423;DHT22;5768;51.476;7.210;2023-03-04T19:43:33;7.30;12.90
11423;DHT22;5768;51.476;7.210;2023-03-04T19:48:38;7.40;12.90
11423;DHT22;5768;51.476;7.210;2023-03-04T19:53:41;7.50;13.10
11423;DHT22;5768;51.476;7.210;2023-03-04T19:58:43;7.50;13.10
11423;DHT22;5768;51.476;7.210;2023-03-04T20:03:48;7.30;13.10
11423;DHT22;5768;51.476;7.210;2023-03-04T20:08:50;7.30;13.20
11423;DHT22;5768;51.476;7.210;2023-03-04T20:13:55;7.40;13.20
11423;DHT22;5768;51.476;7.210;2023-03-04T20:19:03;7.40;13.30
11423;DHT22;5768;51.476;7.210;2023-03-04T20:24:08;7.40;13.30
11423;DHT22;5768;51.476;7.210;2023-03-04T20:29:10;7.50;13.20
11423;DHT22;5768;51.476;7.210;2023-03-04T20:34:14;7.60;13.30
11423;DHT22;5768;51.476;7.210;2023-03-04T20:39:16;7.70;13.30
11423;DHT22;5768;51.476;7.210;2023-03-04T20:44:18;7.50;13.30
11423;DHT22;5768;51.476;7.210;2023-03-04T20:49:23;7.50;13.30
11423;DHT22;5768;51.476;7.210;2023-03-04T20:54:28;7.50;13.30
11423;DHT22;5768;51.476;7.210;2023-03-04T20:59:31;7.50;13.30
11423;DHT22;5768;51.476;7.210;2023-03-04T21:04:35;7.50;13.30
11423;DHT22;5768;51.476;7.210;2023-03-04T21:09:40;7.30;13.40
11423;DHT22;5768;51.476;7.210;2023-03-04T21:14:43;7.40;13.40
11423;DHT22;5768;51.476;7.210;2023-03-04T21:19:47;7.40;13.40
11423;DHT22;5768;51.476;7.210;2023-03-04T21:24:49;7.50;13.50
11423;DHT22;5768;51.476;7.210;2023-03-04T21:29:51;7.50;13.40
11423;DHT22;5768;51.476;7.210;2023-03-04T21:34:55;7.40;13.50
11423;DHT22;5768;51.476;7.210;2023-03-04T21:39:57;7.60;13.50
11423;DHT22;5768;51.476;7.210;2023-03-04T21:45:01;7.50;13.50
11423;DHT22;5768;51.476;7.210;2023-03-04T21:50:05;7.60;13.40
11423;DHT22;5768;51.476;7.210;2023-03-04T21:55:08;7.60;13.40
11423;DHT22;5768;51.476;7.210;2023-03-04T22:00:12;7.60;13.30
11423;DHT22;5768;51.476;7.210;2023-03-04T22:05:17;7.60;13.30
11423;DHT22;5768;51.476;7.210;2023-03-04T22:10:19;7.60;13.30
11423;DHT22;5768;51.476;7.210;2023-03-04T22:15:21;7.50;13.40
11423;DHT22;5768;51.476;7.210;2023-03-04T22:20:24;7.60;13.40
11423;DHT22;5768;51.476;7.210;2023-03-04T22:25:26;7.40;13.40
11423;DHT22;5768;51.476;7.210;2023-03-04T22:30:29;7.20;13.40
11423;DHT22;5768;51.476;7.210;2023-03-04T22:35:33;7.30;13.30
11423;DHT22;5768;51.476;7.210;2023-03-04T22:40:39;7.40;13.20
11423;DHT22;5768;51.476;7.210;2023-03-04T22:45:42;7.40;13.30
11423;DHT22;5768;51.476;7.210;2023-03-04T22:50:46;7.40;13.40
11423;DHT22;5768;51.476;7.210;2023-03-04T22:55:48;7.50;13.20
11423;DHT22;5768;51.476;7.210;2023-03-04T23:00:57;7.20;13.30
11423;DHT22;5768;51.476;7.210;2023-03-04T23:06:02;7.10;13.50
11423;DHT22;5768;51.476;7.210;2023-03-04T23:11:08;6.90;13.70
11423;DHT22;5768;51.476;7.210;2023-03-04T23:16:13;7.00;13.60
11423;DHT22;5768;51.476;7.210;2023-03-04T23:21:20;6.60;13.70
11423;DHT22;5768;51.476;7.210;2023-03-04T23:26:26;6.50;13.80
11423;DHT22;5768;51.476;7.210;2023-03-04T23:31:32;6.70;13.90
11423;DHT22;5768;51.476;7.210;2023-03-04T23:36:37;6.80;13.90
11423;DHT22;5768;51.476;7.210;2023-03-04T23:41:39;6.90;13.90
11423;DHT22;5768;51.476;7.210;2023-03-04T23:46:41;6.70;14.20
11423;DHT22;5768;51.476;7.210;2023-03-04T23:51:45;6.60;14.40
11423;DHT22;5768;51.476;7.210;2023-03-04T23:56:47;6.50;14.70
